Terminal Aerodrome Forecast
Issued by NWS

Home | Current Version | Previous Version | Text Only | Print | Product List | Glossary On
Versions: 1 2 3 4 5 6 7 8 9 10 11 12 13 14 15
000
FTUS44 KSJT 171700 RRA
TAFJCT
TAF
KJCT 171741Z 1718/1818 10006KT P6SM VCSH SCT025 BKN040
      TEMPO 1722/1724 3SM TSRA BKN040CB
     FM180300 VRB03KT P6SM SCT050 BKN100
     FM181100 13007KT P6SM BKN025=

USA.gov is the U.S. government's official web portal to all federal, state and local government web resources and services.